Time,TemperatureF,DewpointF,PressureIn,WindDirection,WindDirectionDegrees,WindSpeedMPH,WindSpeedGustMPH,Humidity,HourlyPrecipIn,Conditions,Clouds,dailyrainin,SolarRadiationWatts/m^2,SoftwareType,DateUTC
2013-01-15 00:12:00,-7.0,-13.0,-100.00,NW,319,0.0,0.0,75,0.00,,,0.00,0.000000,,2013-01-15 07:12:00,
2013-01-15 00:22:00,-7.0,-13.0,-100.00,NW,319,0.0,0.0,75,0.00,,,0.00,0.000000,,2013-01-15 07:22:00,
2013-01-15 00:32:00,-7.0,-13.0,-100.00,NW,319,0.0,0.0,75,0.00,,,0.00,0.000000,,2013-01-15 07:32:00,
2013-01-15 00:42:00,-7.0,-13.0,-100.00,NW,319,0.0,0.0,75,0.00,,,0.00,0.000000,,2013-01-15 07:42:00,
2013-01-15 01:12:00,-7.0,-13.0,-100.00,NNE,17,0.0,0.0,75,0.00,,,0.00,0.000000,,2013-01-15 08:12:00,
2013-01-15 01:22:00,-7.0,-13.0,-100.00,NNE,17,0.0,0.0,75,0.00,,,0.00,0.000000,,2013-01-15 08:22:00,
2013-01-15 01:32:00,-7.0,-13.0,-100.00,NNE,17,0.0,0.0,75,0.00,,,0.00,0.000000,,2013-01-15 08:32:00,
2013-01-15 01:42:00,-7.0,-13.0,-100.00,NNE,17,0.0,0.0,75,0.00,,,0.00,0.000000,,2013-01-15 08:42:00,
2013-01-15 02:12:00,-6.0,-12.0,-100.00,NE,49,0.0,2.0,76,0.00,,,0.00,0.000000,,2013-01-15 09:12:00,
2013-01-15 02:22:00,-6.0,-12.0,-100.00,NE,49,0.0,2.0,76,0.00,,,0.00,0.000000,,2013-01-15 09:22:00,
2013-01-15 02:33:00,-6.0,-12.0,-100.00,NE,49,0.0,2.0,76,0.00,,,0.00,0.000000,,2013-01-15 09:33:00,
2013-01-15 02:42:00,-6.0,-12.0,-100.00,NE,49,0.0,2.0,76,0.00,,,0.00,0.000000,,2013-01-15 09:42:00,
2013-01-15 03:11:00,-8.0,-14.0,-100.00,East,96,0.0,0.0,73,0.00,,,0.00,0.000000,,2013-01-15 10:11:00,
2013-01-15 03:22:00,-8.0,-14.0,-100.00,East,96,0.0,0.0,73,0.00,,,0.00,0.000000,,2013-01-15 10:22:00,
2013-01-15 03:32:00,-8.0,-14.0,-100.00,East,96,0.0,0.0,73,0.00,,,0.00,0.000000,,2013-01-15 10:32:00,
2013-01-15 03:42:00,-8.0,-14.0,-100.00,East,96,0.0,0.0,73,0.00,,,0.00,0.000000,,2013-01-15 10:42:00,
2013-01-15 04:12:00,-7.0,-13.0,-100.00,NNE,12,0.0,0.0,76,0.00,,,0.00,0.000000,,2013-01-15 11:12:00,
2013-01-15 04:22:00,-7.0,-13.0,-100.00,NNE,12,0.0,0.0,76,0.00,,,0.00,0.000000,,2013-01-15 11:22:00,
2013-01-15 04:32:00,-7.0,-13.0,-100.00,NNE,12,0.0,0.0,76,0.00,,,0.00,0.000000,,2013-01-15 11:32:00,
2013-01-15 04:42:00,-7.0,-13.0,-100.00,NNE,12,0.0,0.0,76,0.00,,,0.00,0.000000,,2013-01-15 11:42:00,
2013-01-15 05:12:00,-5.0,-10.0,-100.00,NNW,337,0.0,0.0,77,0.00,,,0.00,0.000000,,2013-01-15 12:12:00,
2013-01-15 05:22:00,-5.0,-10.0,-100.00,NNW,337,0.0,0.0,77,0.00,,,0.00,0.000000,,2013-01-15 12:22:00,
2013-01-15 05:32:00,-5.0,-10.0,-100.00,NNW,337,0.0,0.0,77,0.00,,,0.00,0.000000,,2013-01-15 12:32:00,
2013-01-15 05:42:00,-5.0,-10.0,-100.00,NNW,337,0.0,0.0,77,0.00,,,0.00,0.000000,,2013-01-15 12:42:00,
2013-01-15 06:12:00,-5.0,-10.0,-100.00,NE,47,0.0,0.0,77,0.00,,,0.00,0.000000,,2013-01-15 13:12:00,
2013-01-15 06:23:00,-5.0,-10.0,-100.00,NE,47,0.0,0.0,77,0.00,,,0.00,0.000000,,2013-01-15 13:23:00,
2013-01-15 06:33:00,-5.0,-10.0,-100.00,NE,47,0.0,0.0,77,0.00,,,0.00,0.000000,,2013-01-15 13:33:00,
2013-01-15 06:42:00,-5.0,-10.0,-100.00,NE,47,0.0,0.0,77,0.00,,,0.00,0.000000,,2013-01-15 13:42:00,
2013-01-15 07:12:00,-4.0,-9.0,-100.00,North,1,0.0,2.0,77,0.00,,,0.00,0.000000,,2013-01-15 14:12:00,
2013-01-15 07:23:00,-4.0,-9.0,-100.00,North,1,0.0,2.0,77,0.00,,,0.00,0.000000,,2013-01-15 14:23:00,
2013-01-15 07:33:00,-4.0,-9.0,-100.00,North,1,0.0,2.0,77,0.00,,,0.00,0.000000,,2013-01-15 14:33:00,
2013-01-15 07:42:00,-4.0,-9.0,-100.00,North,1,0.0,2.0,77,0.00,,,0.00,0.000000,,2013-01-15 14:42:00,
2013-01-15 08:12:00,-3.0,-8.0,-100.00,NNW,346,0.0,0.0,77,0.00,,,0.00,0.000000,,2013-01-15 15:12:00,
2013-01-15 08:23:00,-3.0,-8.0,-100.00,NNW,346,0.0,0.0,77,0.00,,,0.00,0.000000,,2013-01-15 15:23:00,
2013-01-15 08:33:00,-3.0,-8.0,-100.00,NNW,346,0.0,0.0,77,0.00,,,0.00,0.000000,,2013-01-15 15:33:00,
2013-01-15 08:43:00,-3.0,-8.0,-100.00,NNW,346,0.0,0.0,77,0.00,,,0.00,0.000000,,2013-01-15 15:43:00,
2013-01-15 09:12:00,-1.0,-7.0,-100.00,NNW,331,0.0,0.0,76,0.00,,,0.00,4.000000,,2013-01-15 16:12:00,
2013-01-15 09:22:00,-1.0,-7.0,-100.00,NNW,331,0.0,0.0,76,0.00,,,0.00,4.000000,,2013-01-15 16:22:00,
2013-01-15 09:33:00,-1.0,-7.0,-100.00,NNW,331,0.0,0.0,76,0.00,,,0.00,4.000000,,2013-01-15 16:33:00,
2013-01-15 09:42:00,-1.0,-7.0,-100.00,NNW,331,0.0,0.0,76,0.00,,,0.00,4.000000,,2013-01-15 16:42:00,
2013-01-15 10:12:00,2.0,-4.0,-100.00,WNW,294,0.0,0.0,74,0.00,,,0.00,7.000000,,2013-01-15 17:12:00,
2013-01-15 10:22:00,2.0,-4.0,-100.00,WNW,294,0.0,0.0,74,0.00,,,0.00,7.000000,,2013-01-15 17:22:00,
2013-01-15 10:33:00,2.0,-4.0,-100.00,WNW,294,0.0,0.0,74,0.00,,,0.00,7.000000,,2013-01-15 17:33:00,
2013-01-15 10:42:00,2.0,-4.0,-100.00,WNW,294,0.0,0.0,74,0.00,,,0.00,7.000000,,2013-01-15 17:42:00,
2013-01-15 11:12:00,7.0,-1.0,-100.00,NNW,335,0.0,2.0,69,0.00,,,0.00,14.000000,,2013-01-15 18:12:00,
2013-01-15 11:23:00,7.0,-1.0,-100.00,NNW,335,0.0,2.0,69,0.00,,,0.00,14.000000,,2013-01-15 18:23:00,
2013-01-15 11:33:00,7.0,-1.0,-100.00,NNW,335,0.0,2.0,69,0.00,,,0.00,14.000000,,2013-01-15 18:33:00,
2013-01-15 11:42:00,7.0,-1.0,-100.00,NNW,335,0.0,2.0,69,0.00,,,0.00,14.000000,,2013-01-15 18:42:00,
2013-01-15 12:12:00,8.0,0.0,-100.00,NNW,331,0.0,2.0,68,0.00,,,-99.99,16.000000,,2013-01-15 19:12:00,
2013-01-15 12:22:00,8.0,0.0,-100.00,NNW,331,0.0,2.0,68,0.00,,,-99.99,16.000000,,2013-01-15 19:22:00,
2013-01-15 12:33:00,8.0,0.0,-100.00,NNW,331,0.0,2.0,68,0.00,,,-99.99,16.000000,,2013-01-15 19:33:00,
2013-01-15 12:42:00,8.0,0.0,-100.00,NNW,331,0.0,2.0,68,0.00,,,-99.99,16.000000,,2013-01-15 19:42:00,
2013-01-15 13:12:00,8.0,1.0,-100.00,WNW,298,1.0,3.0,71,0.00,,,0.00,15.000000,,2013-01-15 20:12:00,
2013-01-15 13:23:00,8.0,1.0,-100.00,WNW,298,1.0,3.0,71,0.00,,,0.00,15.000000,,2013-01-15 20:23:00,
2013-01-15 13:33:00,8.0,1.0,-100.00,WNW,298,1.0,3.0,71,0.00,,,0.00,15.000000,,2013-01-15 20:33:00,
2013-01-15 13:43:00,8.0,1.0,-100.00,WNW,298,1.0,3.0,71,0.00,,,0.00,15.000000,,2013-01-15 20:43:00,
2013-01-15 14:12:00,9.0,1.0,-100.00,NW,311,1.0,3.0,69,0.00,,,0.00,18.000000,,2013-01-15 21:12:00,
2013-01-15 14:22:00,9.0,1.0,-100.00,NW,311,1.0,3.0,69,0.00,,,0.00,18.000000,,2013-01-15 21:22:00,
2013-01-15 14:33:00,9.0,1.0,-100.00,NW,311,1.0,3.0,69,0.00,,,0.00,18.000000,,2013-01-15 21:33:00,
2013-01-15 14:42:00,9.0,1.0,-100.00,NW,311,1.0,3.0,69,0.00,,,0.00,18.000000,,2013-01-15 21:42:00,
2013-01-15 15:12:00,9.0,2.0,-100.00,West,259,1.0,4.0,72,0.00,,,0.00,16.000000,,2013-01-15 22:12:00,
2013-01-15 15:22:00,9.0,2.0,-100.00,West,259,1.0,4.0,72,0.00,,,0.00,16.000000,,2013-01-15 22:22:00,
2013-01-15 15:32:00,9.0,2.0,-100.00,West,259,1.0,4.0,72,0.00,,,0.00,16.000000,,2013-01-15 22:32:00,
2013-01-15 15:42:00,9.0,2.0,-100.00,West,259,1.0,4.0,72,0.00,,,0.00,16.000000,,2013-01-15 22:42:00,
2013-01-15 16:12:00,9.0,3.0,-100.00,NNW,347,0.0,4.0,75,0.00,,,0.00,10.000000,,2013-01-15 23:12:00,
2013-01-15 16:22:00,9.0,3.0,-100.00,NNW,347,0.0,4.0,75,0.00,,,0.00,10.000000,,2013-01-15 23:22:00,
2013-01-15 16:32:00,9.0,3.0,-100.00,NNW,347,0.0,4.0,75,0.00,,,0.00,10.000000,,2013-01-15 23:32:00,
2013-01-15 16:42:00,9.0,3.0,-100.00,NNW,347,0.0,4.0,75,0.00,,,0.00,10.000000,,2013-01-15 23:42:00,
2013-01-15 17:12:00,7.0,1.0,-100.00,NW,314,1.0,4.0,77,0.00,,,0.00,5.000000,,2013-01-16 00:12:00,
2013-01-15 17:22:00,7.0,1.0,-100.00,NW,314,1.0,4.0,77,0.00,,,0.00,5.000000,,2013-01-16 00:22:00,
2013-01-15 17:32:00,7.0,1.0,-100.00,NW,314,1.0,4.0,77,0.00,,,0.00,5.000000,,2013-01-16 00:32:00,
2013-01-15 17:42:00,7.0,1.0,-100.00,NW,314,1.0,4.0,77,0.00,,,0.00,5.000000,,2013-01-16 00:42:00,
2013-01-15 18:12:00,6.0,1.0,-100.00,WSW,254,0.0,3.0,80,0.00,,,0.00,1.000000,,2013-01-16 01:12:00,
2013-01-15 18:22:00,6.0,1.0,-100.00,WSW,254,0.0,3.0,80,0.00,,,0.00,1.000000,,2013-01-16 01:22:00,
2013-01-15 18:33:00,6.0,1.0,-100.00,WSW,254,0.0,3.0,80,0.00,,,0.00,1.000000,,2013-01-16 01:33:00,
2013-01-15 18:42:00,6.0,1.0,-100.00,WSW,254,0.0,3.0,80,0.00,,,0.00,1.000000,,2013-01-16 01:42:00,
2013-01-15 19:12:00,6.0,2.0,-100.00,SW,234,0.0,0.0,82,0.00,,,0.00,0.000000,,2013-01-16 02:12:00,
2013-01-15 19:22:00,6.0,2.0,-100.00,SW,234,0.0,0.0,82,0.00,,,0.00,0.000000,,2013-01-16 02:22:00,
2013-01-15 19:32:00,6.0,2.0,-100.00,SW,234,0.0,0.0,82,0.00,,,0.00,0.000000,,2013-01-16 02:32:00,
2013-01-15 19:42:00,6.0,2.0,-100.00,SW,234,0.0,0.0,82,0.00,,,0.00,0.000000,,2013-01-16 02:42:00,
2013-01-15 20:12:00,5.0,1.0,-100.00,WNW,295,0.0,0.0,83,0.00,,,0.00,0.000000,,2013-01-16 03:12:00,
2013-01-15 20:22:00,5.0,1.0,-100.00,WNW,295,0.0,0.0,83,0.00,,,0.00,0.000000,,2013-01-16 03:22:00,
2013-01-15 20:32:00,5.0,1.0,-100.00,WNW,295,0.0,0.0,83,0.00,,,0.00,0.000000,,2013-01-16 03:32:00,
2013-01-15 20:42:00,5.0,1.0,-100.00,WNW,295,0.0,0.0,83,0.00,,,0.00,0.000000,,2013-01-16 03:42:00,
2013-01-15 21:12:00,5.0,1.0,-100.00,WNW,287,0.0,0.0,83,0.00,,,-99.99,0.000000,,2013-01-16 04:12:00,
2013-01-15 21:22:00,5.0,1.0,-100.00,WNW,287,0.0,0.0,83,0.00,,,-99.99,0.000000,,2013-01-16 04:22:00,
2013-01-15 21:32:00,5.0,1.0,-100.00,WNW,287,0.0,0.0,83,0.00,,,-99.99,0.000000,,2013-01-16 04:32:00,
2013-01-15 21:42:00,5.0,1.0,-100.00,WNW,287,0.0,0.0,83,0.00,,,-99.99,0.000000,,2013-01-16 04:42:00,
2013-01-15 22:12:00,5.0,1.0,-100.00,SW,236,0.0,0.0,83,0.00,,,0.00,0.000000,,2013-01-16 05:12:00,
2013-01-15 22:22:00,5.0,1.0,-100.00,SW,236,0.0,0.0,83,0.00,,,0.00,0.000000,,2013-01-16 05:22:00,
2013-01-15 22:32:00,5.0,1.0,-100.00,SW,236,0.0,0.0,83,0.00,,,0.00,0.000000,,2013-01-16 05:32:00,
2013-01-15 22:42:00,5.0,1.0,-100.00,SW,236,0.0,0.0,83,0.00,,,0.00,0.000000,,2013-01-16 05:42:00,
2013-01-15 23:12:00,5.0,1.0,-100.00,SSE,149,0.0,0.0,83,0.00,,,0.00,0.000000,,2013-01-16 06:12:00,
2013-01-15 23:22:00,5.0,1.0,-100.00,SSE,149,0.0,0.0,83,0.00,,,0.00,0.000000,,2013-01-16 06:22:00,
2013-01-15 23:32:00,5.0,1.0,-100.00,SSE,149,0.0,0.0,83,0.00,,,0.00,0.000000,,2013-01-16 06:32:00,
2013-01-15 23:42:00,5.0,1.0,-100.00,SSE,149,0.0,0.0,83,0.00,,,0.00,0.000000,,2013-01-16 06:42:00,